createdAt,value
2019-03-12T00:03:11.562Z,83.23
2019-03-12T00:08:15.794Z,83.24
2019-03-12T00:13:20.016Z,83.20
2019-03-12T00:18:24.261Z,83.54
2019-03-12T00:23:28.494Z,83.37
2019-03-12T00:28:32.725Z,83.74
2019-03-12T00:33:36.972Z,83.02
2019-03-12T00:38:41.207Z,82.99
2019-03-12T00:43:45.455Z,83.11
2019-03-12T00:48:49.687Z,82.96
2019-03-12T00:53:53.937Z,82.43
2019-03-12T00:58:58.165Z,81.73
2019-03-12T01:04:02.399Z,81.51
2019-03-12T01:09:08.971Z,82.36
2019-03-12T01:14:13.207Z,82.49
2019-03-12T01:19:17.441Z,82.36
2019-03-12T01:24:21.676Z,82.72
2019-03-12T01:29:25.909Z,83.39
2019-03-12T01:34:30.135Z,83.61
2019-03-12T01:39:34.381Z,83.47
2019-03-12T01:44:38.621Z,83.31
2019-03-12T01:49:42.870Z,83.39
2019-03-12T01:54:47.114Z,83.03
2019-03-12T01:59:51.308Z,82.90
2019-03-12T02:04:55.724Z,82.64
2019-03-12T02:09:59.964Z,81.62
2019-03-12T02:15:05.440Z,81.41
2019-03-12T02:20:12.153Z,80.96
2019-03-12T02:25:17.033Z,80.64
2019-03-12T02:30:21.693Z,80.24
2019-03-12T02:35:26.011Z,80.32
2019-03-12T02:40:30.254Z,80.18
2019-03-12T02:45:34.502Z,80.36
2019-03-12T02:50:38.728Z,80.05
2019-03-12T02:55:42.967Z,79.81
2019-03-12T03:00:47.196Z,80.13
2019-03-12T03:06:07.107Z,79.90
2019-03-12T03:11:11.366Z,79.37
2019-03-12T03:16:15.603Z,79.47
2019-03-12T03:21:19.846Z,79.73
2019-03-12T03:26:24.087Z,80.16
2019-03-12T03:31:28.355Z,79.87
2019-03-12T03:36:32.665Z,80.16
2019-03-12T03:41:37.197Z,80.25
2019-03-12T03:46:41.448Z,80.16
2019-03-12T03:51:45.723Z,80.29
2019-03-12T03:56:49.957Z,80.16
2019-03-12T04:01:54.215Z,79.29
2019-03-12T04:06:58.452Z,79.01
2019-03-12T04:12:02.718Z,79.01
2019-03-12T04:17:06.958Z,79.45
2019-03-12T04:22:11.271Z,79.37
2019-03-12T04:27:15.466Z,78.90
2019-03-12T04:32:19.707Z,78.97
2019-03-12T04:37:23.943Z,78.06
2019-03-12T04:42:28.177Z,78.15
2019-03-12T04:47:32.850Z,78.51
2019-03-12T04:52:37.097Z,78.26
2019-03-12T04:57:41.345Z,77.79
2019-03-12T05:02:45.585Z,76.83
2019-03-12T05:07:49.805Z,76.46
2019-03-12T05:12:54.067Z,76.23
2019-03-12T05:17:58.298Z,76.39
2019-03-12T05:23:02.525Z,75.65
2019-03-12T05:28:06.835Z,75.32
2019-03-12T05:33:11.077Z,75.34
2019-03-12T05:38:15.307Z,74.80
2019-03-12T05:43:19.538Z,74.73
2019-03-12T05:48:23.772Z,74.32
2019-03-12T05:53:41.846Z,73.46
2019-03-12T05:58:46.116Z,73.70
2019-03-12T06:03:50.345Z,73.58
2019-03-12T06:08:54.569Z,74.23
2019-03-12T06:13:58.807Z,73.87
2019-03-12T06:19:03.046Z,74.20
2019-03-12T06:24:07.277Z,73.61
2019-03-12T06:29:11.519Z,73.95
2019-03-12T06:34:19.930Z,72.12
2019-03-12T06:39:30.503Z,72.64
2019-03-12T06:44:39.145Z,72.39
2019-03-12T06:50:05.290Z,72.08
2019-03-12T06:55:25.307Z,72.45
2019-03-12T07:00:51.363Z,72.44
2019-03-12T07:06:20.700Z,71.83
2019-03-12T07:11:59.062Z,73.26
2019-03-12T07:17:20.536Z,73.27
2019-03-12T07:22:43.732Z,73.80
2019-03-12T07:27:53.914Z,75.14
2019-03-12T07:33:24.453Z,75.59
2019-03-12T07:38:34.213Z,75.07
2019-03-12T07:43:48.485Z,75.74
2019-03-12T07:49:14.620Z,76.32
2019-03-12T07:54:47.200Z,75.71
2019-03-12T08:00:10.432Z,75.06
2019-03-12T08:05:32.420Z,75.56
2019-03-12T08:10:54.174Z,75.32
2019-03-12T08:16:20.529Z,75.96
2019-03-12T08:21:49.674Z,76.47
2019-03-12T08:27:11.502Z,76.79
2019-03-12T08:32:34.497Z,76.84
2019-03-12T08:38:03.750Z,75.93
2019-03-12T08:43:36.035Z,75.14
2019-03-12T08:49:05.748Z,75.92
2019-03-12T08:54:28.923Z,76.64
2019-03-12T08:59:52.088Z,75.99
2019-03-12T09:05:24.179Z,74.49
2019-03-12T09:10:33.954Z,73.77
2019-03-12T09:15:53.953Z,71.53
2019-03-12T09:21:10.175Z,70.97
2019-03-12T09:26:26.691Z,70.66
2019-03-12T09:31:50.156Z,70.81
2019-03-12T09:37:22.404Z,70.93
2019-03-12T09:42:48.385Z,69.40
2019-03-12T09:48:02.066Z,67.40
2019-03-12T09:53:25.243Z,65.20
2019-03-12T09:58:47.363Z,64.83
2019-03-12T10:04:13.472Z,61.79
2019-03-12T10:09:42.536Z,63.80
2019-03-12T10:15:09.629Z,63.46
2019-03-12T10:20:35.664Z,61.84
2019-03-12T10:25:48.729Z,60.72
2019-03-12T10:31:04.729Z,59.65
2019-03-12T10:36:18.724Z,58.71
2019-03-12T10:41:44.777Z,58.13
2019-03-12T10:46:56.048Z,55.90
2019-03-12T10:52:00.277Z,55.32
2019-03-12T10:57:04.508Z,52.83
2019-03-12T11:02:08.998Z,55.92
2019-03-12T11:07:16.660Z,54.92
2019-03-12T11:12:19.187Z,54.26
2019-03-12T11:17:23.458Z,53.17
2019-03-12T11:22:27.730Z,51.47
2019-03-12T11:27:32.001Z,51.19
2019-03-12T11:32:36.244Z,49.50
2019-03-12T11:37:40.547Z,46.90
2019-03-12T11:42:44.910Z,44.73
2019-03-12T11:47:49.414Z,44.79
2019-03-12T11:52:57.742Z,45.62
2019-03-12T11:57:59.751Z,46.39
2019-03-12T12:03:04.177Z,44.52
2019-03-12T12:08:08.408Z,44.25
2019-03-12T12:13:12.636Z,45.90
2019-03-12T12:18:16.850Z,44.43
2019-03-12T12:23:21.136Z,41.60
2019-03-12T12:28:25.377Z,41.21
2019-03-12T12:33:29.615Z,42.35
2019-03-12T12:38:33.834Z,39.21
2019-03-12T12:43:38.062Z,40.91
2019-03-12T12:48:42.295Z,38.22
2019-03-12T12:53:46.531Z,39.26
2019-03-12T12:58:50.752Z,40.45
2019-03-12T13:03:55.096Z,36.72
2019-03-12T13:08:59.328Z,38.87
2019-03-12T13:14:03.559Z,38.47
2019-03-12T13:19:07.821Z,37.28
2019-03-12T13:24:12.046Z,38.13
2019-03-12T13:29:16.313Z,38.86
2019-03-12T13:34:20.532Z,39.49
2019-03-12T13:39:24.834Z,40.61
2019-03-12T13:44:29.060Z,41.35
2019-03-12T13:49:33.284Z,40.25
2019-03-12T13:54:37.533Z,39.73
2019-03-12T13:59:41.765Z,39.01
2019-03-12T14:04:45.998Z,39.06
2019-03-12T14:09:50.241Z,36.95
2019-03-12T14:14:54.477Z,38.51
2019-03-12T14:20:22.656Z,40.33
2019-03-12T14:25:26.884Z,40.91
2019-03-12T14:30:31.160Z,40.61
2019-03-12T14:35:35.395Z,40.26
2019-03-12T14:40:39.647Z,40.47
2019-03-12T14:45:50.583Z,40.97
2019-03-12T14:50:54.807Z,41.65
2019-03-12T14:55:59.038Z,42.26
2019-03-12T15:01:03.265Z,43.06
2019-03-12T15:06:07.807Z,43.49
2019-03-12T15:11:12.040Z,43.49
2019-03-12T15:16:16.285Z,44.32
2019-03-12T15:21:21.409Z,44.52
2019-03-12T15:26:25.730Z,44.57
2019-03-12T15:31:29.972Z,44.20
2019-03-12T15:36:34.237Z,44.95
2019-03-12T15:41:38.492Z,44.48
2019-03-12T15:46:42.752Z,44.85
2019-03-12T15:51:47.091Z,44.99
2019-03-12T15:56:51.341Z,45.55
2019-03-12T16:01:55.570Z,45.96
2019-03-12T16:07:01.504Z,46.18
2019-03-12T16:12:05.961Z,46.03
2019-03-12T16:17:10.251Z,46.68
2019-03-12T16:22:14.501Z,46.41
2019-03-12T16:27:18.740Z,46.86
2019-03-12T16:32:22.982Z,47.04
2019-03-12T16:37:28.294Z,47.14
2019-03-12T16:42:35.258Z,47.70
2019-03-12T16:47:38.494Z,47.66
2019-03-12T16:52:42.744Z,47.57
2019-03-12T16:57:46.979Z,47.67
2019-03-12T17:02:51.291Z,47.94
2019-03-12T17:07:55.589Z,47.91
2019-03-12T17:12:59.969Z,47.56
2019-03-12T17:18:04.207Z,47.43
2019-03-12T17:23:08.435Z,47.95
2019-03-12T17:28:12.684Z,48.39
2019-03-12T17:33:16.964Z,48.88
2019-03-12T17:38:21.199Z,49.19
2019-03-12T17:43:25.433Z,49.21
2019-03-12T17:48:29.686Z,49.26
2019-03-12T17:53:33.917Z,49.46
2019-03-12T17:58:38.178Z,49.32
2019-03-12T18:03:42.523Z,49.65
2019-03-12T18:08:47.017Z,50.47
2019-03-12T18:13:51.285Z,50.68
2019-03-12T18:18:55.635Z,50.86
2019-03-12T18:23:59.880Z,50.98
2019-03-12T18:29:04.261Z,51.11
2019-03-12T18:34:08.509Z,51.34
2019-03-12T18:39:12.768Z,51.80
2019-03-12T18:44:17.016Z,51.74
2019-03-12T18:49:21.257Z,51.90
2019-03-12T18:54:25.845Z,52.08
2019-03-12T18:59:30.127Z,52.05
2019-03-12T19:04:34.373Z,51.75
2019-03-12T19:09:39.883Z,51.40
2019-03-12T19:14:44.272Z,51.49
2019-03-12T19:19:48.690Z,51.28
2019-03-12T19:24:53.261Z,51.19
2019-03-12T19:29:57.746Z,51.17
2019-03-12T19:35:02.412Z,51.16
2019-03-12T19:40:08.977Z,50.93
2019-03-12T19:45:13.997Z,50.64
2019-03-12T19:50:19.156Z,50.53
2019-03-12T19:55:27.338Z,50.75
2019-03-12T20:00:34.079Z,51.13
2019-03-12T20:05:39.746Z,51.22
2019-03-12T20:11:33.186Z,51.41
2019-03-12T20:17:13.686Z,51.78
2019-03-12T20:22:57.828Z,51.41
2019-03-12T20:28:57.446Z,51.50
2019-03-12T20:34:44.544Z,51.45
2019-03-12T20:40:38.515Z,51.46
2019-03-12T20:46:32.512Z,51.01
2019-03-12T20:52:27.045Z,50.90
2019-03-12T20:58:10.516Z,50.51
2019-03-12T21:04:05.096Z,50.31
2019-03-12T21:09:53.063Z,50.38
2019-03-12T21:15:26.633Z,50.27
2019-03-12T21:21:21.907Z,50.23
2019-03-12T21:27:02.177Z,50.25
2019-03-12T21:32:07.113Z,49.95
2019-03-12T21:37:11.946Z,50.27
2019-03-12T21:42:16.811Z,49.47
2019-03-12T21:47:21.214Z,49.75
2019-03-12T21:52:25.647Z,49.20
2019-03-12T21:57:29.937Z,49.49
2019-03-12T22:02:34.237Z,49.42
2019-03-12T22:07:38.511Z,49.09
2019-03-12T22:12:42.765Z,48.93
2019-03-12T22:17:46.994Z,48.88
2019-03-12T22:23:02.318Z,48.63
2019-03-12T22:28:06.554Z,48.66
2019-03-12T22:33:10.793Z,48.50
2019-03-12T22:38:15.114Z,48.29
2019-03-12T22:43:19.362Z,47.98
2019-03-12T22:48:23.598Z,47.90
2019-03-12T22:53:27.853Z,47.84
2019-03-12T22:58:32.242Z,47.71
2019-03-12T23:03:36.494Z,47.83
2019-03-12T23:08:41.243Z,47.49
2019-03-12T23:13:45.522Z,46.77
2019-03-12T23:18:49.751Z,46.93
2019-03-12T23:23:54.009Z,46.29
2019-03-12T23:28:58.255Z,45.04
2019-03-12T23:34:02.503Z,44.96
2019-03-12T23:39:09.027Z,43.32
2019-03-12T23:44:13.261Z,43.14
2019-03-12T23:49:18.301Z,43.06
2019-03-12T23:54:22.523Z,41.84
2019-03-12T23:59:26.754Z,41.64
